Time,TemperatureF,DewpointF,PressureIn,WindDirection,WindDirectionDegrees,WindSpeedMPH,WindSpeedGustMPH,Humidity,HourlyPrecipIn,Conditions,Clouds,dailyrainin,SolarRadiationWatts/m^2,SoftwareType,DateUTC
2013-05-27 00:01:00,67.8,45.7,29.46,SE,125,0.2,3.4,45,0.00,SCT,SCT,0.00,0.0,WeatherDisplay:10.37,2013-05-27 06:01:00,
2013-05-27 00:06:00,67.6,45.5,29.45,SE,124,0.4,0.0,45,0.00,SCT,SCT,0.00,0.0,WeatherDisplay:10.37,2013-05-27 06:06:00,
2013-05-27 00:11:00,67.6,45.5,29.44,ESE,123,2.8,3.4,45,0.00,SCT,SCT,0.00,0.0,WeatherDisplay:10.37,2013-05-27 06:11:00,
2013-05-27 00:16:00,67.4,45.9,29.44,SE,124,0.1,1.1,46,0.00,SCT,SCT,0.00,0.0,WeatherDisplay:10.37,2013-05-27 06:16:00,
2013-05-27 00:21:00,67.2,44.5,29.45,ESE,123,0.7,3.4,44,0.00,SCT,SCT,0.00,0.0,WeatherDisplay:10.37,2013-05-27 06:21:00,
2013-05-27 00:26:00,67.0,44.4,29.45,ESE,123,0.0,0.0,44,0.00,SCT,SCT,0.00,0.0,WeatherDisplay:10.37,2013-05-27 06:26:00,
2013-05-27 00:31:00,66.9,46.0,29.45,SSE,154,1.4,3.4,47,0.00,SCT,SCT,0.00,0.0,WeatherDisplay:10.37,2013-05-27 06:31:00,
2013-05-27 00:36:00,66.6,45.2,29.45,SSE,155,1.0,1.1,46,0.00,SCT,SCT,0.00,0.0,WeatherDisplay:10.37,2013-05-27 06:36:00,
2013-05-27 00:41:00,66.3,44.3,29.47,SSE,161,1.2,2.3,45,0.00,BKN,BKN,0.00,0.0,WeatherDisplay:10.37,2013-05-27 06:41:00,
2013-05-27 00:46:00,66.0,42.9,29.47,WSW,242,0.2,3.4,43,0.00,BKN,BKN,0.00,0.0,WeatherDisplay:10.37,2013-05-27 06:46:00,
2013-05-27 00:51:00,65.8,43.3,29.47,WSW,243,0.8,3.4,44,0.00,BKN,BKN,0.00,0.0,WeatherDisplay:10.37,2013-05-27 06:51:00,
2013-05-27 00:56:00,65.5,42.4,29.46,WSW,237,2.0,5.8,43,0.00,BKN,BKN,0.00,0.0,WeatherDisplay:10.37,2013-05-27 06:56:00,
2013-05-27 01:01:00,65.3,42.2,29.46,SW,234,1.0,4.6,43,0.00,BKN,BKN,0.00,0.0,WeatherDisplay:10.37,2013-05-27 07:01:00,
2013-05-27 01:06:00,65.1,42.0,29.47,SW,229,1.0,4.6,43,0.00,BKN,BKN,0.00,0.0,WeatherDisplay:10.37,2013-05-27 07:06:00,
2013-05-27 01:11:00,64.9,42.5,29.46,SW,236,0.0,3.4,44,0.00,BKN,BKN,0.00,0.0,WeatherDisplay:10.37,2013-05-27 07:11:00,
2013-05-27 01:16:00,64.7,42.3,29.46,SSW,205,0.1,3.4,44,0.00,BKN,BKN,0.00,0.0,WeatherDisplay:10.37,2013-05-27 07:16:00,
2013-05-27 01:21:00,64.5,41.5,29.45,SSW,206,0.1,1.1,43,0.00,BKN,BKN,0.00,0.0,WeatherDisplay:10.37,2013-05-27 07:21:00,
2013-05-27 01:26:00,64.3,41.3,29.46,SSW,206,0.4,1.1,43,0.00,BKN,BKN,0.00,0.0,WeatherDisplay:10.37,2013-05-27 07:26:00,
2013-05-27 01:31:00,64.2,41.2,29.47,SSW,206,0.5,1.1,43,0.00,BKN,BKN,0.00,0.0,WeatherDisplay:10.37,2013-05-27 07:31:00,
2013-05-27 01:36:00,64.1,41.7,29.47,SSW,206,0.8,2.0,44,0.00,BKN,BKN,0.00,0.0,WeatherDisplay:10.37,2013-05-27 07:36:00,
2013-05-27 01:41:00,63.7,41.4,29.47,SSW,202,0.5,2.3,44,0.00,BKN,BKN,0.00,0.0,WeatherDisplay:10.37,2013-05-27 07:41:00,
2013-05-27 01:46:00,63.4,41.7,29.47,SSW,202,0.0,1.1,45,0.00,BKN,BKN,0.00,0.0,WeatherDisplay:10.37,2013-05-27 07:46:00,
2013-05-27 01:51:00,63.1,41.4,29.47,SSW,202,0.0,0.0,45,0.00,SCT,SCT,0.00,0.0,WeatherDisplay:10.37,2013-05-27 07:51:00,
2013-05-27 01:56:00,62.9,40.6,29.47,SSW,202,0.0,2.3,44,0.00,SCT,SCT,0.00,0.0,WeatherDisplay:10.37,2013-05-27 07:56:00,
2013-05-27 02:01:00,62.8,41.1,29.47,SSW,202,0.1,1.0,45,0.00,SCT,SCT,0.00,0.0,WeatherDisplay:10.37,2013-05-27 08:01:00,
2013-05-27 02:06:00,62.6,40.9,29.49,SSW,202,0.0,0.0,45,0.00,SCT,SCT,0.00,0.0,WeatherDisplay:10.37,2013-05-27 08:06:00,
2013-05-27 02:11:00,62.5,40.3,29.49,SSW,202,0.0,1.1,44,0.00,SCT,SCT,0.00,0.0,WeatherDisplay:10.37,2013-05-27 08:11:00,
2013-05-27 02:16:00,62.3,40.7,29.50,SSW,202,0.0,1.1,45,0.00,SCT,SCT,0.00,0.0,WeatherDisplay:10.37,2013-05-27 08:16:00,
2013-05-27 02:21:00,62.1,40.5,29.49,SSW,202,0.4,2.0,45,0.00,SCT,SCT,0.00,0.0,WeatherDisplay:10.37,2013-05-27 08:21:00,
2013-05-27 02:26:00,62.0,40.4,29.50,SSW,202,0.2,1.1,45,0.00,SCT,SCT,0.00,0.0,WeatherDisplay:10.37,2013-05-27 08:26:00,
2013-05-27 02:31:00,61.8,40.8,29.49,SSW,207,0.0,1.1,46,0.00,SCT,SCT,0.00,0.0,WeatherDisplay:10.37,2013-05-27 08:31:00,
2013-05-27 02:36:00,61.6,40.6,29.49,SSW,194,0.7,2.0,46,0.00,SCT,SCT,0.00,0.0,WeatherDisplay:10.37,2013-05-27 08:36:00,
2013-05-27 02:41:00,61.5,41.1,29.49,SSW,194,0.0,3.4,47,0.00,SCT,SCT,0.00,0.0,WeatherDisplay:10.37,2013-05-27 08:41:00,
2013-05-27 02:46:00,61.3,40.9,29.49,SSW,194,0.4,2.3,47,0.00,SCT,SCT,0.00,0.0,WeatherDisplay:10.37,2013-05-27 08:46:00,
2013-05-27 02:51:00,61.1,40.7,29.49,SSW,195,1.7,2.3,47,0.00,SCT,SCT,0.00,0.0,WeatherDisplay:10.37,2013-05-27 08:51:00,
2013-05-27 02:56:00,61.0,40.1,29.49,SSW,195,0.1,2.3,46,0.00,SCT,SCT,0.00,0.0,WeatherDisplay:10.37,2013-05-27 08:56:00,
2013-05-27 03:01:00,61.0,40.1,29.49,SSW,195,0.1,2.3,46,0.00,SCT,SCT,0.00,0.0,WeatherDisplay:10.37,2013-05-27 09:01:00,
2013-05-27 03:06:00,61.0,40.1,29.50,SSW,195,1.2,2.3,46,0.00,SCT,SCT,0.00,0.0,WeatherDisplay:10.37,2013-05-27 09:06:00,
2013-05-27 03:11:00,60.8,39.9,29.50,SSW,195,1.7,3.4,46,0.00,SCT,SCT,0.00,0.0,WeatherDisplay:10.37,2013-05-27 09:11:00,
2013-05-27 03:16:00,60.7,40.3,29.50,SSW,195,0.8,3.4,47,0.00,SCT,SCT,0.00,0.0,WeatherDisplay:10.37,2013-05-27 09:16:00,
2013-05-27 03:21:00,60.5,40.2,29.50,SSW,195,0.2,3.4,47,0.00,SCT,SCT,0.00,0.0,WeatherDisplay:10.37,2013-05-27 09:21:00,
2013-05-27 03:26:00,60.3,40.0,29.51,SSW,195,2.0,3.4,47,0.00,SCT,SCT,0.00,0.0,WeatherDisplay:10.37,2013-05-27 09:26:00,
2013-05-27 03:31:00,60.2,38.8,29.51,SSW,195,0.2,3.4,45,0.00,SCT,SCT,0.00,0.0,WeatherDisplay:10.37,2013-05-27 09:31:00,
2013-05-27 03:36:00,60.1,38.7,29.51,SSW,195,1.1,3.4,45,0.00,SCT,SCT,0.00,0.0,WeatherDisplay:10.37,2013-05-27 09:36:00,
2013-05-27 03:41:00,60.0,39.1,29.51,SSW,195,0.0,0.0,46,0.00,SCT,SCT,0.00,0.0,WeatherDisplay:10.37,2013-05-27 09:41:00,
2013-05-27 03:46:00,59.7,39.4,29.51,South,180,1.5,4.6,47,0.00,SCT,SCT,0.00,0.0,WeatherDisplay:10.37,2013-05-27 09:46:00,
2013-05-27 03:51:00,59.5,39.8,29.51,South,180,1.1,3.4,48,0.00,SCT,SCT,0.00,0.0,WeatherDisplay:10.37,2013-05-27 09:51:00,
2013-05-27 03:56:00,59.4,39.7,29.51,South,186,0.5,3.4,48,0.00,SCT,SCT,0.00,0.0,WeatherDisplay:10.37,2013-05-27 09:56:00,
2013-05-27 04:01:00,59.2,39.0,29.51,South,186,0.0,3.4,47,0.00,SCT,SCT,0.00,0.0,WeatherDisplay:10.37,2013-05-27 10:01:00,
2013-05-27 04:06:00,59.1,38.3,29.51,SSW,211,0.7,2.0,46,0.00,SCT,SCT,0.00,0.0,WeatherDisplay:10.37,2013-05-27 10:06:00,
2013-05-27 04:11:00,59.2,38.4,29.51,SSW,212,0.5,1.1,46,0.00,SCT,SCT,0.00,0.0,WeatherDisplay:10.37,2013-05-27 10:11:00,
2013-05-27 04:16:00,59.2,39.5,29.51,SSW,212,2.0,3.4,48,0.00,SCT,SCT,0.00,0.0,WeatherDisplay:10.37,2013-05-27 10:16:00,
2013-05-27 04:21:00,59.0,39.3,29.51,SSW,212,1.2,2.3,48,0.00,SCT,SCT,0.00,0.0,WeatherDisplay:10.37,2013-05-27 10:21:00,
2013-05-27 04:26:00,59.0,39.3,29.51,SSW,195,0.6,3.4,48,0.00,SCT,SCT,0.00,0.0,WeatherDisplay:10.37,2013-05-27 10:26:00,
2013-05-27 04:31:00,59.0,38.8,29.51,SSW,195,0.0,0.0,47,0.00,SCT,SCT,0.00,0.0,WeatherDisplay:10.37,2013-05-27 10:31:00,
2013-05-27 04:36:00,58.9,38.1,29.51,South,191,0.0,1.1,46,0.00,SCT,SCT,0.00,0.0,WeatherDisplay:10.37,2013-05-27 10:36:00,
2013-05-27 04:41:00,58.8,38.1,29.51,South,191,0.4,4.0,46,0.00,SCT,SCT,0.00,0.0,WeatherDisplay:10.37,2013-05-27 10:41:00,
2013-05-27 04:46:00,58.7,38.5,29.51,South,191,0.0,0.0,47,0.00,SCT,SCT,0.00,0.0,WeatherDisplay:10.37,2013-05-27 10:46:00,
2013-05-27 04:51:00,58.6,38.4,29.51,South,191,0.4,1.0,47,0.00,SCT,SCT,0.00,0.0,WeatherDisplay:10.37,2013-05-27 10:51:00,
2013-05-27 04:56:00,58.4,38.2,29.53,South,191,1.2,3.0,47,0.00,SCT,SCT,0.00,0.0,WeatherDisplay:10.37,2013-05-27 10:56:00,
2013-05-27 05:01:00,58.2,38.1,29.53,SSW,208,1.7,4.0,47,0.00,BKN,BKN,0.00,0.0,WeatherDisplay:10.37,2013-05-27 11:01:00,
2013-05-27 05:06:00,58.0,37.9,29.53,SSW,198,1.1,8.1,47,0.00,BKN,BKN,0.00,0.0,WeatherDisplay:10.37,2013-05-27 11:06:00,
2013-05-27 05:11:00,57.9,37.2,29.53,SSW,201,0.2,2.3,46,0.00,BKN,BKN,0.00,0.0,WeatherDisplay:10.37,2013-05-27 11:11:00,
2013-05-27 05:16:00,57.9,36.7,29.53,South,172,0.0,1.1,45,0.00,BKN,BKN,0.00,0.0,WeatherDisplay:10.37,2013-05-27 11:16:00,
2013-05-27 05:21:00,57.8,36.6,29.53,South,172,1.3,2.3,45,0.00,BKN,BKN,0.00,0.0,WeatherDisplay:10.37,2013-05-27 11:21:00,
2013-05-27 05:26:00,57.7,36.5,29.53,South,172,0.4,3.4,45,0.00,BKN,BKN,0.00,0.0,WeatherDisplay:10.37,2013-05-27 11:26:00,
2013-05-27 05:31:00,57.6,37.0,29.53,South,171,0.8,3.4,46,0.00,BKN,BKN,0.00,0.0,WeatherDisplay:10.37,2013-05-27 11:31:00,
2013-05-27 05:36:00,57.5,36.3,29.53,South,171,0.4,3.4,45,0.00,BKN,BKN,0.00,0.0,WeatherDisplay:10.37,2013-05-27 11:36:00,
2013-05-27 05:41:00,57.4,36.8,29.54,South,171,0.0,0.0,46,0.00,BKN,BKN,0.00,5.0,WeatherDisplay:10.37,2013-05-27 11:41:00,
2013-05-27 05:46:00,57.3,36.7,29.54,South,174,0.8,3.4,46,0.00,BKN,BKN,0.00,7.0,WeatherDisplay:10.37,2013-05-27 11:46:00,
2013-05-27 05:51:00,57.1,37.0,29.55,WSW,245,1.5,4.0,47,0.00,BKN,BKN,0.00,11.0,WeatherDisplay:10.37,2013-05-27 11:51:00,
2013-05-27 05:56:00,57.0,37.0,29.56,SSE,162,1.5,3.0,47,0.00,BKN,BKN,0.00,12.0,WeatherDisplay:10.37,2013-05-27 11:56:00,
2013-05-27 06:01:00,56.7,37.2,29.56,East,89,0.2,0.0,48,0.00,SCT,SCT,0.00,16.0,WeatherDisplay:10.37,2013-05-27 12:01:00,
2013-05-27 06:06:00,56.4,38.0,29.56,East,89,0.0,0.0,50,0.00,SCT,SCT,0.00,21.0,WeatherDisplay:10.37,2013-05-27 12:06:00,
2013-05-27 06:11:00,56.2,38.3,29.56,East,89,0.4,1.0,51,0.00,SCT,SCT,0.00,25.0,WeatherDisplay:10.37,2013-05-27 12:11:00,
2013-05-27 06:16:00,55.9,38.5,29.56,East,88,0.0,1.0,52,0.00,SCT,SCT,0.00,26.0,WeatherDisplay:10.37,2013-05-27 12:16:00,
2013-05-27 06:21:00,55.6,38.7,29.56,ESE,105,0.5,1.1,53,0.00,SCT,SCT,0.00,30.0,WeatherDisplay:10.37,2013-05-27 12:21:00,
2013-05-27 06:26:00,55.5,38.6,29.56,ESE,105,0.9,1.1,53,0.00,SCT,SCT,0.00,114.0,WeatherDisplay:10.37,2013-05-27 12:26:00,
2013-05-27 06:31:00,55.4,39.0,29.56,ESE,105,1.6,2.3,54,0.00,SCT,SCT,0.00,56.0,WeatherDisplay:10.37,2013-05-27 12:31:00,
2013-05-27 06:36:00,55.6,39.2,29.56,SE,142,3.5,5.0,54,0.00,SCT,SCT,0.00,142.0,WeatherDisplay:10.37,2013-05-27 12:36:00,
2013-05-27 06:41:00,56.0,39.1,29.56,SE,140,2.8,4.6,53,0.00,SCT,SCT,0.00,160.0,WeatherDisplay:10.37,2013-05-27 12:41:00,
2013-05-27 06:46:00,56.6,40.1,29.55,SE,140,0.4,3.4,54,0.00,SCT,SCT,0.00,178.0,WeatherDisplay:10.37,2013-05-27 12:46:00,
2013-05-27 06:51:00,56.9,40.4,29.55,SE,140,0.3,2.3,54,0.00,SCT,SCT,0.00,192.0,WeatherDisplay:10.37,2013-05-27 12:51:00,
2013-05-27 06:56:00,57.2,41.2,29.55,SSE,147,0.6,3.4,55,0.00,SCT,SCT,0.00,209.0,WeatherDisplay:10.37,2013-05-27 12:56:00,
2013-05-27 07:01:00,57.5,40.5,29.55,SSE,153,0.3,2.3,53,0.00,SCT,SCT,0.00,227.0,WeatherDisplay:10.37,2013-05-27 13:01:00,
2013-05-27 07:06:00,57.9,39.4,29.56,SSE,153,1.1,3.4,50,0.00,SCT,SCT,0.00,244.0,WeatherDisplay:10.37,2013-05-27 13:06:00,
2013-05-27 07:11:00,58.7,36.8,29.56,SSW,199,1.5,5.8,44,0.00,SCT,SCT,0.00,262.0,WeatherDisplay:10.37,2013-05-27 13:11:00,
2013-05-27 07:16:00,59.4,36.3,29.56,South,171,1.2,4.6,42,0.00,SCT,SCT,0.00,276.0,WeatherDisplay:10.37,2013-05-27 13:16:00,
2013-05-27 07:21:00,60.2,35.8,29.55,SSE,162,4.9,5.8,40,0.00,SCT,SCT,0.00,295.0,WeatherDisplay:10.37,2013-05-27 13:21:00,
2013-05-27 07:26:00,61.0,35.8,29.55,SE,144,3.2,10.3,39,0.00,SCT,SCT,0.00,315.0,WeatherDisplay:10.37,2013-05-27 13:26:00,
2013-05-27 07:31:00,61.7,35.1,29.54,SSW,192,2.8,6.9,37,0.00,SCT,SCT,0.00,332.0,WeatherDisplay:10.37,2013-05-27 13:31:00,
2013-05-27 07:36:00,62.2,35.6,29.54,SE,144,6.1,7.0,37,0.00,SCT,SCT,0.00,348.0,WeatherDisplay:10.37,2013-05-27 13:36:00,
2013-05-27 07:41:00,62.7,35.3,29.54,South,184,2.6,8.1,36,0.00,SCT,SCT,0.00,366.0,WeatherDisplay:10.37,2013-05-27 13:41:00,
2013-05-27 07:46:00,63.1,35.0,29.54,South,175,3.9,10.0,35,0.00,SCT,SCT,0.00,385.0,WeatherDisplay:10.37,2013-05-27 13:46:00,
2013-05-27 07:51:00,63.5,34.6,29.53,South,184,5.3,5.3,34,0.00,SCT,SCT,0.00,401.0,WeatherDisplay:10.37,2013-05-27 13:51:00,
2013-05-27 07:56:00,64.0,35.0,29.53,SSW,192,1.4,3.4,34,0.00,SCT,SCT,0.00,418.0,WeatherDisplay:10.37,2013-05-27 13:56:00,
2013-05-27 08:01:00,64.4,34.6,29.53,SSW,194,3.6,11.5,33,0.00,SCT,SCT,0.00,438.0,WeatherDisplay:10.37,2013-05-27 14:01:00,
2013-05-27 08:06:00,64.9,35.1,29.55,SW,215,5.4,9.2,33,0.00,SCT,SCT,0.00,452.0,WeatherDisplay:10.37,2013-05-27 14:06:00,
2013-05-27 08:11:00,65.4,35.5,29.55,South,190,4.5,9.2,33,0.00,SCT,SCT,0.00,471.0,WeatherDisplay:10.37,2013-05-27 14:11:00,
2013-05-27 08:16:00,65.9,36.0,29.53,South,187,2.6,5.8,33,0.00,SCT,SCT,0.00,489.0,WeatherDisplay:10.37,2013-05-27 14:16:00,
2013-05-27 08:21:00,66.3,35.5,29.53,SW,232,3.0,4.6,32,0.00,SCT,SCT,0.00,506.0,WeatherDisplay:10.37,2013-05-27 14:21:00,
2013-05-27 08:26:00,66.9,35.3,29.53,SW,219,6.3,11.5,31,0.00,SCT,SCT,0.00,520.0,WeatherDisplay:10.37,2013-05-27 14:26:00,
2013-05-27 08:31:00,67.2,35.5,29.53,SSW,196,4.6,9.2,31,0.00,SCT,SCT,0.00,536.0,WeatherDisplay:10.37,2013-05-27 14:31:00,
2013-05-27 08:36:00,67.5,35.8,29.52,South,178,3.7,10.3,31,0.00,SCT,SCT,0.00,554.0,WeatherDisplay:10.37,2013-05-27 14:36:00,
2013-05-27 08:41:00,67.9,36.1,29.52,SW,232,3.1,6.0,31,0.00,SCT,SCT,0.00,570.0,WeatherDisplay:10.37,2013-05-27 14:41:00,
2013-05-27 08:46:00,68.3,35.6,29.51,SSW,196,3.4,9.2,30,0.00,SCT,SCT,0.00,589.0,WeatherDisplay:10.37,2013-05-27 14:46:00,
2013-05-27 08:51:00,68.9,36.2,29.52,South,178,1.0,5.0,30,0.00,SCT,SCT,0.00,606.0,WeatherDisplay:10.37,2013-05-27 14:51:00,
2013-05-27 08:56:00,69.8,36.1,29.51,SSW,200,3.1,5.8,29,0.00,SCT,SCT,0.00,622.0,WeatherDisplay:10.37,2013-05-27 14:56:00,
2013-05-27 09:01:00,70.7,36.0,29.51,SW,214,0.7,3.4,28,0.00,SCT,SCT,0.00,638.0,WeatherDisplay:10.37,2013-05-27 15:01:00,
2013-05-27 09:06:00,71.4,35.7,29.52,South,186,2.3,4.6,27,0.00,SCT,SCT,0.00,654.0,WeatherDisplay:10.37,2013-05-27 15:06:00,
2013-05-27 09:11:00,72.3,36.4,29.50,SSW,204,1.8,3.4,27,0.00,SCT,SCT,0.00,671.0,WeatherDisplay:10.37,2013-05-27 15:11:00,
2013-05-27 09:16:00,72.9,35.0,29.50,SW,215,1.1,4.6,25,0.00,SCT,SCT,0.00,686.0,WeatherDisplay:10.37,2013-05-27 15:16:00,
2013-05-27 09:21:00,73.3,34.3,29.50,SSW,206,3.5,5.8,24,0.00,SCT,SCT,0.00,703.0,WeatherDisplay:10.37,2013-05-27 15:21:00,
2013-05-27 09:26:00,73.7,34.6,29.49,SSW,201,2.7,4.6,24,0.00,SCT,SCT,0.00,717.0,WeatherDisplay:10.37,2013-05-27 15:26:00,
2013-05-27 09:31:00,74.2,35.1,29.49,SW,232,2.1,4.6,24,0.00,SCT,SCT,0.00,729.0,WeatherDisplay:10.37,2013-05-27 15:31:00,
2013-05-27 09:36:00,74.6,35.4,29.49,WSW,246,3.0,5.0,24,0.00,SCT,SCT,0.00,742.0,WeatherDisplay:10.37,2013-05-27 15:36:00,
2013-05-27 09:41:00,75.0,36.8,29.49,WSW,254,1.1,4.6,25,0.00,SCT,SCT,0.00,758.0,WeatherDisplay:10.37,2013-05-27 15:41:00,
2013-05-27 09:46:00,75.5,35.1,29.48,SSW,200,3.6,6.9,23,0.00,SCT,SCT,0.00,773.0,WeatherDisplay:10.37,2013-05-27 15:46:00,
2013-05-27 09:51:00,75.8,30.6,29.47,WSW,240,1.6,3.4,19,0.00,SCT,SCT,0.00,788.0,WeatherDisplay:10.37,2013-05-27 15:51:00,
2013-05-27 09:56:00,76.5,31.1,29.48,SSW,198,2.2,5.8,19,0.00,SCT,SCT,0.00,800.0,WeatherDisplay:10.37,2013-05-27 15:56:00,
2013-05-27 10:01:00,77.1,30.3,29.48,SSW,198,0.0,3.4,18,0.00,SCT,SCT,0.00,814.0,WeatherDisplay:10.37,2013-05-27 16:01:00,
2013-05-27 10:06:00,77.8,32.2,29.47,SSW,200,0.5,3.4,19,0.00,SCT,SCT,0.00,823.0,WeatherDisplay:10.37,2013-05-27 16:06:00,
2013-05-27 10:11:00,78.5,31.4,29.47,WSW,252,1.8,3.4,18,0.00,SCT,SCT,0.00,837.0,WeatherDisplay:10.37,2013-05-27 16:11:00,
2013-05-27 10:16:00,78.6,31.5,29.47,North,355,0.6,2.3,18,0.00,SCT,SCT,0.00,847.0,WeatherDisplay:10.37,2013-05-27 16:16:00,
2013-05-27 10:21:00,78.7,30.2,29.47,WNW,290,0.1,3.4,17,0.00,SCT,SCT,0.00,860.0,WeatherDisplay:10.37,2013-05-27 16:21:00,
2013-05-27 10:26:00,78.7,30.2,29.47,NW,321,0.4,3.4,17,0.00,SCT,SCT,0.00,872.0,WeatherDisplay:10.37,2013-05-27 16:26:00,
2013-05-27 10:31:00,79.1,31.9,29.46,SW,226,0.1,3.4,18,0.00,SCT,SCT,0.00,884.0,WeatherDisplay:10.37,2013-05-27 16:31:00,
2013-05-27 10:36:00,79.6,32.3,29.45,WSW,245,3.2,9.0,18,0.00,SCT,SCT,0.00,895.0,WeatherDisplay:10.37,2013-05-27 16:36:00,
2013-05-27 10:41:00,79.8,32.5,29.45,NNE,17,1.1,4.6,18,0.00,SCT,SCT,0.00,902.0,WeatherDisplay:10.37,2013-05-27 16:41:00,
2013-05-27 10:46:00,80.1,32.7,29.45,North,360,1.8,3.4,18,0.00,SCT,SCT,0.00,912.0,WeatherDisplay:10.37,2013-05-27 16:46:00,
2013-05-27 10:51:00,80.4,28.5,29.45,West,269,0.4,3.0,15,0.00,SCT,SCT,0.00,923.0,WeatherDisplay:10.37,2013-05-27 16:51:00,
2013-05-27 10:56:00,80.7,30.3,29.45,West,267,2.6,5.8,16,0.00,SCT,SCT,0.00,949.0,WeatherDisplay:10.37,2013-05-27 16:56:00,
2013-05-27 11:01:00,80.8,30.4,29.45,West,271,4.5,9.2,16,0.00,SCT,SCT,0.00,960.0,WeatherDisplay:10.37,2013-05-27 17:01:00,
2013-05-27 11:06:00,80.8,28.8,29.45,North,360,3.7,5.8,15,0.00,SCT,SCT,0.00,1005.0,WeatherDisplay:10.37,2013-05-27 17:06:00,
2013-05-27 11:11:00,81.0,30.6,29.45,NW,326,5.6,10.3,16,0.00,SCT,SCT,0.00,1016.0,WeatherDisplay:10.37,2013-05-27 17:11:00,
2013-05-27 11:16:00,81.2,32.2,29.45,SW,224,2.8,6.9,17,0.00,SCT,SCT,0.00,1100.0,WeatherDisplay:10.37,2013-05-27 17:16:00,
2013-05-27 11:21:00,81.9,34.2,29.43,WNW,286,2.2,5.0,18,0.00,SCT,SCT,0.00,1153.0,WeatherDisplay:10.37,2013-05-27 17:21:00,
2013-05-27 11:26:00,82.2,31.5,29.43,SW,221,5.2,11.5,16,0.00,SCT,SCT,0.00,1023.0,WeatherDisplay:10.37,2013-05-27 17:26:00,
2013-05-27 11:31:00,82.0,29.8,29.43,North,355,3.7,10.3,15,0.00,SCT,SCT,0.00,438.0,WeatherDisplay:10.37,2013-05-27 17:31:00,
2013-05-27 11:36:00,81.5,29.4,29.43,NNW,338,2.1,3.4,15,0.00,SCT,SCT,0.00,441.0,WeatherDisplay:10.37,2013-05-27 17:36:00,
2013-05-27 11:41:00,80.9,30.5,29.44,North,360,3.3,3.4,16,0.00,SCT,SCT,0.00,765.0,WeatherDisplay:10.37,2013-05-27 17:41:00,
2013-05-27 11:46:00,80.5,30.2,29.44,NW,319,2.6,5.8,16,0.00,SCT,SCT,0.00,1150.0,WeatherDisplay:10.37,2013-05-27 17:46:00,
2013-05-27 11:51:00,80.7,30.3,29.44,North,355,3.8,6.9,16,0.00,SCT,SCT,0.00,1153.0,WeatherDisplay:10.37,2013-05-27 17:51:00,
2013-05-27 11:56:00,81.0,29.0,29.44,NW,314,2.3,3.4,15,0.00,SCT,SCT,0.00,584.0,WeatherDisplay:10.37,2013-05-27 17:56:00,
2013-05-27 12:01:00,81.2,29.1,29.44,North,350,3.2,6.9,15,0.00,SCT,SCT,0.00,1144.0,WeatherDisplay:10.37,2013-05-27 18:01:00,
2013-05-27 12:06:00,81.3,29.2,29.44,NNE,15,1.4,11.5,15,0.00,SCT,SCT,0.00,1132.0,WeatherDisplay:10.37,2013-05-27 18:06:00,
2013-05-27 12:11:00,82.1,29.8,29.44,North,360,2.6,9.0,15,0.00,SCT,SCT,0.00,1107.0,WeatherDisplay:10.37,2013-05-27 18:11:00,
2013-05-27 12:16:00,82.8,33.5,29.43,NNE,19,1.7,3.4,17,0.00,SCT,SCT,0.00,1088.0,WeatherDisplay:10.37,2013-05-27 18:16:00,
2013-05-27 12:21:00,83.2,30.7,29.43,NNE,32,6.8,9.2,15,0.00,SCT,SCT,0.00,1069.0,WeatherDisplay:10.37,2013-05-27 18:21:00,
2013-05-27 12:26:00,82.6,31.8,29.43,NE,42,3.5,6.0,16,0.00,SCT,SCT,0.00,454.0,WeatherDisplay:10.37,2013-05-27 18:26:00,
2013-05-27 12:31:00,82.2,29.9,29.44,North,11,4.6,11.5,15,0.00,SCT,SCT,0.00,1090.0,WeatherDisplay:10.37,2013-05-27 18:31:00,
2013-05-27 12:36:00,81.8,29.6,29.44,East,90,2.9,9.2,15,0.00,SCT,SCT,0.00,1056.0,WeatherDisplay:10.37,2013-05-27 18:36:00,
2013-05-27 12:41:00,81.9,32.8,29.43,ENE,60,1.3,3.4,17,0.00,SCT,SCT,0.00,1069.0,WeatherDisplay:10.37,2013-05-27 18:41:00,
2013-05-27 12:46:00,82.5,30.2,29.42,NNE,19,3.8,4.0,15,0.00,SCT,SCT,0.00,1060.0,WeatherDisplay:10.37,2013-05-27 18:46:00,
2013-05-27 12:51:00,82.6,30.2,29.42,North,360,1.5,4.6,15,0.00,SCT,SCT,0.00,1072.0,WeatherDisplay:10.37,2013-05-27 18:51:00,
2013-05-27 12:56:00,82.8,28.7,29.42,NNW,338,4.0,8.1,14,0.00,SCT,SCT,0.00,1079.0,WeatherDisplay:10.37,2013-05-27 18:56:00,
2013-05-27 13:01:00,82.8,32.0,29.41,West,276,1.6,2.0,16,0.00,SCT,SCT,0.00,1132.0,WeatherDisplay:10.37,2013-05-27 19:01:00,
2013-05-27 13:06:00,82.9,32.1,29.42,NNW,341,0.5,3.0,16,0.00,SCT,SCT,0.00,1192.0,WeatherDisplay:10.37,2013-05-27 19:06:00,
2013-05-27 13:11:00,83.5,31.0,29.42,NNW,337,3.5,5.8,15,0.00,SCT,SCT,0.00,1190.0,WeatherDisplay:10.37,2013-05-27 19:11:00,
2013-05-27 13:16:00,83.2,32.3,29.42,NNE,13,0.3,2.3,16,0.00,SCT,SCT,0.00,1074.0,WeatherDisplay:10.37,2013-05-27 19:16:00,
2013-05-27 13:21:00,83.2,30.7,29.42,NNE,14,4.1,5.8,15,0.00,SCT,SCT,0.00,960.0,WeatherDisplay:10.37,2013-05-27 19:21:00,
2013-05-27 13:26:00,83.2,30.7,29.42,NNE,29,5.6,11.0,15,0.00,SCT,SCT,0.00,772.0,WeatherDisplay:10.37,2013-05-27 19:26:00,
2013-05-27 13:31:00,82.8,32.0,29.42,NNE,25,0.0,3.4,16,0.00,SCT,SCT,0.00,1042.0,WeatherDisplay:10.37,2013-05-27 19:31:00,
2013-05-27 13:36:00,83.2,30.7,29.42,ESE,111,1.0,4.6,15,0.00,SCT,SCT,0.00,1132.0,WeatherDisplay:10.37,2013-05-27 19:36:00,
2013-05-27 13:41:00,83.1,28.9,29.42,South,176,1.5,5.8,14,0.00,SCT,SCT,0.00,640.0,WeatherDisplay:10.37,2013-05-27 19:41:00,
2013-05-27 13:46:00,82.9,28.8,29.42,SE,133,6.7,6.9,14,0.00,SCT,SCT,0.00,462.0,WeatherDisplay:10.37,2013-05-27 19:46:00,
2013-05-27 13:51:00,82.5,30.2,29.41,ESE,115,0.3,2.3,15,0.00,SCT,SCT,0.00,371.0,WeatherDisplay:10.37,2013-05-27 19:51:00,
2013-05-27 13:56:00,82.4,28.4,29.42,ESE,115,0.7,2.3,14,0.00,SCT,SCT,0.00,374.0,WeatherDisplay:10.37,2013-05-27 19:56:00,
2013-05-27 14:01:00,82.3,30.0,29.43,SW,228,0.9,3.4,15,0.00,BKN,BKN,0.00,329.0,WeatherDisplay:10.37,2013-05-27 20:01:00,
2013-05-27 14:06:00,82.0,28.1,29.43,North,5,3.6,3.6,14,0.00,BKN,BKN,0.00,355.0,WeatherDisplay:10.37,2013-05-27 20:06:00,
2013-05-27 14:11:00,81.5,31.0,29.43,NNE,28,1.1,1.1,16,0.00,BKN,BKN,0.00,404.0,WeatherDisplay:10.37,2013-05-27 20:11:00,
2013-05-27 14:16:00,81.1,29.1,29.43,SW,229,0.1,2.3,15,0.00,BKN,BKN,0.00,499.0,WeatherDisplay:10.37,2013-05-27 20:16:00,
2013-05-27 14:21:00,81.7,31.1,29.43,NNW,338,0.2,1.1,16,0.00,BKN,BKN,0.00,1004.0,WeatherDisplay:10.37,2013-05-27 20:21:00,
2013-05-27 14:26:00,82.2,29.9,29.42,SSW,213,1.1,5.8,15,0.00,BKN,BKN,0.00,425.0,WeatherDisplay:10.37,2013-05-27 20:26:00,
2013-05-27 14:31:00,82.2,31.5,29.42,SW,230,0.4,2.3,16,0.00,BKN,BKN,0.00,1211.0,WeatherDisplay:10.37,2013-05-27 20:31:00,
2013-05-27 14:36:00,83.1,37.9,29.40,WSW,238,0.1,4.6,20,0.00,BKN,BKN,0.00,1039.0,WeatherDisplay:10.37,2013-05-27 20:36:00,
2013-05-27 14:41:00,83.2,30.7,29.40,SSE,162,0.7,2.3,15,0.00,BKN,BKN,0.00,779.0,WeatherDisplay:10.37,2013-05-27 20:41:00,
2013-05-27 14:46:00,83.6,32.6,29.40,NE,37,0.6,4.6,16,0.00,BKN,BKN,0.00,998.0,WeatherDisplay:10.37,2013-05-27 20:46:00,
2013-05-27 14:51:00,83.4,32.5,29.40,West,279,2.3,5.8,16,0.00,BKN,BKN,0.00,998.0,WeatherDisplay:10.37,2013-05-27 20:51:00,
2013-05-27 14:56:00,83.6,34.2,29.40,NW,319,0.3,3.4,17,0.00,BKN,BKN,0.00,800.0,WeatherDisplay:10.37,2013-05-27 20:56:00,
2013-05-27 15:01:00,83.6,31.0,29.40,NNE,24,3.4,3.4,15,0.00,BKN,BKN,0.00,480.0,WeatherDisplay:10.37,2013-05-27 21:01:00,
2013-05-27 15:06:00,83.3,30.8,29.41,NNE,29,6.3,6.3,15,0.00,BKN,BKN,0.00,281.0,WeatherDisplay:10.37,2013-05-27 21:06:00,
2013-05-27 15:11:00,82.6,31.8,29.41,WNW,294,1.4,3.4,16,0.00,BKN,BKN,0.00,445.0,WeatherDisplay:10.37,2013-05-27 21:11:00,
2013-05-27 15:16:00,82.2,29.9,29.42,NW,315,1.6,3.4,15,0.00,BKN,BKN,0.00,397.0,WeatherDisplay:10.37,2013-05-27 21:16:00,
2013-05-27 15:21:00,81.8,27.9,29.42,SW,225,3.8,5.8,14,0.00,BKN,BKN,0.00,374.0,WeatherDisplay:10.37,2013-05-27 21:21:00,
2013-05-27 15:26:00,81.4,29.3,29.42,SW,225,0.0,2.3,15,0.00,BKN,BKN,0.00,696.0,WeatherDisplay:10.37,2013-05-27 21:26:00,
2013-05-27 15:31:00,81.9,29.7,29.42,NNW,344,0.8,1.1,15,0.00,BKN,BKN,0.00,949.0,WeatherDisplay:10.37,2013-05-27 21:31:00,
2013-05-27 15:36:00,82.8,33.5,29.41,WNW,299,2.3,4.6,17,0.00,BKN,BKN,0.00,561.0,WeatherDisplay:10.37,2013-05-27 21:36:00,
2013-05-27 15:41:00,82.8,32.0,29.41,NNE,27,2.5,4.6,16,0.00,BKN,BKN,0.00,394.0,WeatherDisplay:10.37,2013-05-27 21:41:00,
2013-05-27 15:46:00,82.7,31.9,29.40,NNW,344,2.2,3.4,16,0.00,BKN,BKN,0.00,323.0,WeatherDisplay:10.37,2013-05-27 21:46:00,
2013-05-27 15:51:00,82.6,31.8,29.40,WSW,244,1.8,3.0,16,0.00,BKN,BKN,0.00,301.0,WeatherDisplay:10.37,2013-05-27 21:51:00,
2013-05-27 15:56:00,82.1,29.8,29.41,SSW,192,1.3,2.0,15,0.00,BKN,BKN,0.00,313.0,WeatherDisplay:10.37,2013-05-27 21:56:00,
2013-05-27 16:01:00,81.9,31.3,29.41,SSW,200,1.4,3.4,16,0.00,BKN,BKN,0.00,364.0,WeatherDisplay:10.37,2013-05-27 22:01:00,
2013-05-27 16:06:00,81.7,31.1,29.41,SSW,209,3.7,3.7,16,0.00,BKN,BKN,0.00,352.0,WeatherDisplay:10.37,2013-05-27 22:06:00,
2013-05-27 16:11:00,81.5,31.0,29.41,SSW,200,3.4,3.4,16,0.00,BKN,BKN,0.00,283.0,WeatherDisplay:10.37,2013-05-27 22:11:00,
2013-05-27 16:16:00,80.7,30.3,29.42,SSW,213,10.1,18.4,16,0.00,BKN,BKN,0.00,408.0,WeatherDisplay:10.37,2013-05-27 22:16:00,
2013-05-27 16:21:00,80.0,29.8,29.41,SSE,166,9.3,13.8,16,0.00,BKN,BKN,0.00,735.0,WeatherDisplay:10.37,2013-05-27 22:21:00,
2013-05-27 16:26:00,80.3,30.0,29.42,WSW,246,6.5,11.5,16,0.00,BKN,BKN,0.00,722.0,WeatherDisplay:10.37,2013-05-27 22:26:00,
2013-05-27 16:31:00,80.7,30.3,29.42,NNW,330,3.2,10.3,16,0.00,BKN,BKN,0.00,654.0,WeatherDisplay:10.37,2013-05-27 22:31:00,
2013-05-27 16:36:00,80.9,32.0,29.41,NW,311,1.5,3.4,17,0.00,BKN,BKN,0.00,450.0,WeatherDisplay:10.37,2013-05-27 22:36:00,
2013-05-27 16:41:00,80.9,30.5,29.41,NW,317,1.6,3.4,16,0.00,BKN,BKN,0.00,193.0,WeatherDisplay:10.37,2013-05-27 22:41:00,
2013-05-27 16:46:00,80.7,33.2,29.41,WNW,290,2.2,3.4,18,0.00,BKN,BKN,0.00,160.0,WeatherDisplay:10.37,2013-05-27 22:46:00,
2013-05-27 16:51:00,80.3,31.5,29.41,West,263,3.6,5.8,17,0.00,BKN,BKN,0.00,149.0,WeatherDisplay:10.37,2013-05-27 22:51:00,
2013-05-27 16:56:00,79.9,31.2,29.41,WNW,288,1.8,5.0,17,0.00,BKN,BKN,0.00,167.0,WeatherDisplay:10.37,2013-05-27 22:56:00,
2013-05-27 17:01:00,79.5,30.8,29.41,WNW,288,3.0,11.5,17,0.00,OVC,OVC,0.00,225.0,WeatherDisplay:10.37,2013-05-27 23:01:00,
2013-05-27 17:06:00,79.0,30.4,29.42,WNW,286,2.0,6.9,17,0.00,OVC,OVC,0.00,244.0,WeatherDisplay:10.37,2013-05-27 23:06:00,
2013-05-27 17:11:00,78.7,30.2,29.42,WNW,295,2.1,3.4,17,0.00,OVC,OVC,0.00,246.0,WeatherDisplay:10.37,2013-05-27 23:11:00,
2013-05-27 17:16:00,78.5,30.0,29.42,WNW,287,6.7,10.3,17,0.00,OVC,OVC,0.00,264.0,WeatherDisplay:10.37,2013-05-27 23:16:00,
2013-05-27 17:21:00,78.5,31.4,29.42,NW,313,0.4,2.3,18,0.00,OVC,OVC,0.00,373.0,WeatherDisplay:10.37,2013-05-27 23:21:00,
2013-05-27 17:26:00,79.1,31.9,29.41,NW,311,2.7,10.3,18,0.00,OVC,OVC,0.00,694.0,WeatherDisplay:10.37,2013-05-27 23:26:00,
2013-05-27 17:31:00,79.8,31.1,29.41,WNW,284,3.3,6.9,17,0.00,OVC,OVC,0.00,693.0,WeatherDisplay:10.37,2013-05-27 23:31:00,
2013-05-27 17:36:00,80.7,31.8,29.41,NW,323,3.1,3.4,17,0.00,OVC,OVC,0.00,543.0,WeatherDisplay:10.37,2013-05-27 23:36:00,
2013-05-27 17:41:00,81.0,32.1,29.40,NNE,21,3.1,4.6,17,0.00,OVC,OVC,0.00,200.0,WeatherDisplay:10.37,2013-05-27 23:41:00,
2013-05-27 17:46:00,80.7,31.8,29.41,NNE,15,2.8,4.6,17,0.00,OVC,OVC,0.00,135.0,WeatherDisplay:10.37,2013-05-27 23:46:00,
2013-05-27 17:51:00,80.4,31.6,29.42,NNE,15,0.6,3.0,17,0.00,OVC,OVC,0.00,144.0,WeatherDisplay:10.37,2013-05-27 23:51:00,
2013-05-27 17:56:00,80.0,31.2,29.42,NNE,15,0.7,3.4,17,0.00,OVC,OVC,0.00,174.0,WeatherDisplay:10.37,2013-05-27 23:56:00,
2013-05-27 18:01:00,79.9,32.6,29.41,NE,39,1.6,6.0,18,0.00,BKN,BKN,0.00,132.0,WeatherDisplay:10.37,2013-05-28 00:01:00,
2013-05-27 18:06:00,79.5,30.8,29.41,NE,38,2.8,2.8,17,0.00,BKN,BKN,0.00,206.0,WeatherDisplay:10.37,2013-05-28 00:06:00,
2013-05-27 18:11:00,79.1,31.9,29.42,NE,40,2.8,6.9,18,0.00,BKN,BKN,0.00,114.0,WeatherDisplay:10.37,2013-05-28 00:11:00,
2013-05-27 18:16:00,78.5,32.8,29.42,NNE,19,7.1,10.3,19,0.00,BKN,BKN,0.00,109.0,WeatherDisplay:10.37,2013-05-28 00:16:00,
2013-05-27 18:21:00,77.7,33.4,29.42,East,90,1.1,6.9,20,0.00,BKN,BKN,0.00,76.0,WeatherDisplay:10.37,2013-05-28 00:21:00,
2013-05-27 18:26:00,77.3,33.1,29.43,NE,46,2.4,6.9,20,0.00,BKN,BKN,0.00,60.0,WeatherDisplay:10.37,2013-05-28 00:26:00,
2013-05-27 18:31:00,76.9,31.5,29.43,NNE,30,3.0,6.9,19,0.00,BKN,BKN,0.00,63.0,WeatherDisplay:10.37,2013-05-28 00:31:00,
2013-05-27 18:36:00,76.7,31.3,29.44,ENE,70,3.0,4.6,19,0.00,BKN,BKN,0.00,60.0,WeatherDisplay:10.37,2013-05-28 00:36:00,
2013-05-27 18:41:00,76.5,32.4,29.43,East,82,3.0,3.4,20,0.00,BKN,BKN,0.00,46.0,WeatherDisplay:10.37,2013-05-28 00:41:00,
2013-05-27 18:46:00,76.3,31.0,29.44,SE,144,7.6,7.6,19,0.00,BKN,BKN,0.00,39.0,WeatherDisplay:10.37,2013-05-28 00:46:00,
2013-05-27 18:51:00,76.1,30.8,29.44,ESE,106,0.8,2.3,19,0.00,BKN,BKN,0.00,32.0,WeatherDisplay:10.37,2013-05-28 00:51:00,
2013-05-27 18:56:00,76.0,30.7,29.45,SE,142,3.0,6.0,19,0.00,BKN,BKN,0.00,28.0,WeatherDisplay:10.37,2013-05-28 00:56:00,
2013-05-27 19:01:00,75.9,30.7,29.46,SSE,148,5.3,10.0,19,0.00,BKN,BKN,0.00,32.0,WeatherDisplay:10.37,2013-05-28 01:01:00,
2013-05-27 19:06:00,75.7,31.8,29.43,SSE,163,6.2,6.9,20,0.00,BKN,BKN,0.00,44.0,WeatherDisplay:10.37,2013-05-28 01:06:00,
2013-05-27 19:11:00,75.4,32.7,29.42,ESE,115,4.9,6.9,21,0.00,BKN,BKN,0.00,58.0,WeatherDisplay:10.37,2013-05-28 01:11:00,
2013-05-27 19:16:00,75.1,33.6,29.42,SE,139,5.8,13.8,22,0.00,BKN,BKN,0.00,74.0,WeatherDisplay:10.37,2013-05-28 01:16:00,
2013-05-27 19:21:00,74.7,33.3,29.43,East,79,4.4,5.0,22,0.00,BKN,BKN,0.00,74.0,WeatherDisplay:10.37,2013-05-28 01:21:00,
2013-05-27 19:26:00,74.2,34.0,29.45,NNE,15,3.9,6.9,23,0.00,BKN,BKN,0.00,69.0,WeatherDisplay:10.37,2013-05-28 01:26:00,
2013-05-27 19:31:00,73.9,33.7,29.44,East,101,1.2,2.3,23,0.00,BKN,BKN,0.00,53.0,WeatherDisplay:10.37,2013-05-28 01:31:00,
2013-05-27 19:36:00,73.7,32.5,29.44,ESE,118,0.6,2.3,22,0.00,BKN,BKN,0.00,46.0,WeatherDisplay:10.37,2013-05-28 01:36:00,
2013-05-27 19:41:00,73.5,33.4,29.44,South,175,0.0,0.0,23,0.00,BKN,BKN,0.00,51.0,WeatherDisplay:10.37,2013-05-28 01:41:00,
2013-05-27 19:46:00,73.4,33.3,29.43,South,188,1.1,4.0,23,0.00,BKN,BKN,0.00,69.0,WeatherDisplay:10.37,2013-05-28 01:46:00,
2013-05-27 19:51:00,73.4,32.2,29.43,SW,215,0.3,4.6,22,0.00,BKN,BKN,0.00,58.0,WeatherDisplay:10.37,2013-05-28 01:51:00,
2013-05-27 19:56:00,73.4,32.2,29.43,SW,214,0.0,0.0,22,0.00,BKN,BKN,0.00,46.0,WeatherDisplay:10.37,2013-05-28 01:56:00,
2013-05-27 20:01:00,73.4,33.3,29.43,SW,215,0.0,0.0,23,0.00,BKN,BKN,0.00,33.0,WeatherDisplay:10.37,2013-05-28 02:01:00,
2013-05-27 20:06:00,73.3,33.2,29.41,SW,215,0.0,2.3,23,0.00,BKN,BKN,0.00,25.0,WeatherDisplay:10.37,2013-05-28 02:06:00,
2013-05-27 20:11:00,73.2,33.2,29.40,SW,215,0.0,0.0,23,0.00,BKN,BKN,0.00,16.0,WeatherDisplay:10.37,2013-05-28 02:11:00,
2013-05-27 20:16:00,73.0,34.1,29.41,SW,215,0.0,0.0,24,0.00,BKN,BKN,0.00,9.0,WeatherDisplay:10.37,2013-05-28 02:16:00,
2013-05-27 20:21:00,72.8,33.9,29.41,SW,215,0.0,0.0,24,0.00,BKN,BKN,0.00,0.0,WeatherDisplay:10.37,2013-05-28 02:21:00,
2013-05-27 20:26:00,72.6,33.7,29.41,SW,214,0.0,0.0,24,0.00,BKN,BKN,0.00,0.0,WeatherDisplay:10.37,2013-05-28 02:26:00,
2013-05-27 20:31:00,72.3,35.5,29.42,SW,215,0.0,0.0,26,0.00,BKN,BKN,0.00,0.0,WeatherDisplay:10.37,2013-05-28 02:31:00,
2013-05-27 20:36:00,71.9,34.1,29.42,SW,215,0.0,0.0,25,0.00,BKN,BKN,0.00,0.0,WeatherDisplay:10.37,2013-05-28 02:36:00,
2013-05-27 20:41:00,71.5,33.8,29.42,SW,215,0.0,0.0,25,0.00,BKN,BKN,0.00,0.0,WeatherDisplay:10.37,2013-05-28 02:41:00,
2013-05-27 20:46:00,71.3,34.6,29.42,SW,215,0.0,0.0,26,0.00,BKN,BKN,0.00,0.0,WeatherDisplay:10.37,2013-05-28 02:46:00,
2013-05-27 20:51:00,70.8,34.2,29.42,SW,215,0.0,0.0,26,0.00,BKN,BKN,0.00,0.0,WeatherDisplay:10.37,2013-05-28 02:51:00,
2013-05-27 20:56:00,70.5,34.9,29.42,SW,215,0.0,0.0,27,0.00,BKN,BKN,0.00,0.0,WeatherDisplay:10.37,2013-05-28 02:56:00,
2013-05-27 21:01:00,70.1,33.6,29.43,SW,215,0.0,0.0,26,0.00,BKN,BKN,0.00,0.0,WeatherDisplay:10.37,2013-05-28 03:01:00,
2013-05-27 21:06:00,69.7,33.3,29.40,SW,214,0.0,0.0,26,0.00,BKN,BKN,0.00,0.0,WeatherDisplay:10.37,2013-05-28 03:06:00,
2013-05-27 21:11:00,69.2,33.8,29.40,SW,215,0.0,0.0,27,0.00,BKN,BKN,0.00,0.0,WeatherDisplay:10.37,2013-05-28 03:11:00,
2013-05-27 21:16:00,68.7,33.3,29.40,SW,215,0.0,0.0,27,0.00,BKN,BKN,0.00,0.0,WeatherDisplay:10.37,2013-05-28 03:16:00,
2013-05-27 21:21:00,68.3,33.9,29.41,SW,215,0.0,0.0,28,0.00,BKN,BKN,0.00,0.0,WeatherDisplay:10.37,2013-05-28 03:21:00,
2013-05-27 21:26:00,67.9,33.6,29.42,SW,215,0.0,0.0,28,0.00,BKN,BKN,0.00,0.0,WeatherDisplay:10.37,2013-05-28 03:26:00,
2013-05-27 21:31:00,67.4,34.0,29.42,SW,215,0.0,0.0,29,0.00,BKN,BKN,0.00,0.0,WeatherDisplay:10.37,2013-05-28 03:31:00,
2013-05-27 21:36:00,67.1,33.8,29.42,SW,215,0.0,0.0,29,0.00,BKN,BKN,0.00,0.0,WeatherDisplay:10.37,2013-05-28 03:36:00,
2013-05-27 21:41:00,66.7,33.4,29.42,SW,214,0.6,1.0,29,0.00,BKN,BKN,0.00,0.0,WeatherDisplay:10.37,2013-05-28 03:41:00,
2013-05-27 21:46:00,66.4,34.0,29.43,SW,214,0.0,2.3,30,0.00,BKN,BKN,0.00,0.0,WeatherDisplay:10.37,2013-05-28 03:46:00,
2013-05-27 21:51:00,66.3,33.1,29.44,SW,215,0.0,0.0,29,0.00,BKN,BKN,0.00,0.0,WeatherDisplay:10.37,2013-05-28 03:51:00,
2013-05-27 21:56:00,66.2,33.8,29.44,SW,215,0.0,0.0,30,0.00,BKN,BKN,0.00,0.0,WeatherDisplay:10.37,2013-05-28 03:56:00,
2013-05-27 22:01:00,66.1,33.7,29.44,SW,215,0.0,0.0,30,0.00,BKN,BKN,0.00,0.0,WeatherDisplay:10.37,2013-05-28 04:01:00,
2013-05-27 22:06:00,66.0,34.5,29.43,SW,215,0.3,1.0,31,0.00,BKN,BKN,0.00,0.0,WeatherDisplay:10.37,2013-05-28 04:06:00,
2013-05-27 22:11:00,65.7,35.0,29.43,SW,215,0.9,3.4,32,0.00,BKN,BKN,0.00,0.0,WeatherDisplay:10.37,2013-05-28 04:11:00,
2013-05-27 22:16:00,65.4,34.8,29.43,SW,215,0.0,0.0,32,0.00,BKN,BKN,0.00,0.0,WeatherDisplay:10.37,2013-05-28 04:16:00,
2013-05-27 22:21:00,65.2,35.4,29.43,SW,215,0.0,0.0,33,0.00,BKN,BKN,0.00,0.0,WeatherDisplay:10.37,2013-05-28 04:21:00,
2013-05-27 22:26:00,65.0,35.2,29.43,SW,214,0.0,0.0,33,0.00,BKN,BKN,0.00,0.0,WeatherDisplay:10.37,2013-05-28 04:26:00,
2013-05-27 22:31:00,64.8,35.0,29.43,SW,215,0.0,1.1,33,0.00,BKN,BKN,0.00,0.0,WeatherDisplay:10.37,2013-05-28 04:31:00,
2013-05-27 22:36:00,64.6,34.1,29.43,SW,214,0.3,1.0,32,0.00,BKN,BKN,0.00,0.0,WeatherDisplay:10.37,2013-05-28 04:36:00,
2013-05-27 22:41:00,64.5,34.7,29.43,SW,216,0.0,1.1,33,0.00,BKN,BKN,0.00,0.0,WeatherDisplay:10.37,2013-05-28 04:41:00,
2013-05-27 22:46:00,64.3,34.6,29.44,SW,216,0.0,0.0,33,0.00,BKN,BKN,0.00,0.0,WeatherDisplay:10.37,2013-05-28 04:46:00,
2013-05-27 22:51:00,64.3,34.6,29.44,SW,215,0.0,0.0,33,0.00,BKN,BKN,0.00,0.0,WeatherDisplay:10.37,2013-05-28 04:51:00,
2013-05-27 22:56:00,64.1,34.4,29.44,SW,216,0.0,0.0,33,0.00,BKN,BKN,0.00,0.0,WeatherDisplay:10.37,2013-05-28 04:56:00,
2013-05-27 23:01:00,64.0,34.3,29.43,SW,216,0.0,0.0,33,0.00,BKN,BKN,0.00,0.0,WeatherDisplay:10.37,2013-05-28 05:01:00,
2013-05-27 23:06:00,63.8,34.9,29.44,SW,216,0.0,0.0,34,0.00,BKN,BKN,0.00,0.0,WeatherDisplay:10.37,2013-05-28 05:06:00,
2013-05-27 23:11:00,63.6,35.4,29.44,SW,215,1.1,3.4,35,0.00,BKN,BKN,0.00,0.0,WeatherDisplay:10.37,2013-05-28 05:11:00,
2013-05-27 23:16:00,63.4,36.0,29.44,SW,215,0.5,1.1,36,0.00,BKN,BKN,0.00,0.0,WeatherDisplay:10.37,2013-05-28 05:16:00,
2013-05-27 23:21:00,63.1,36.4,29.44,SW,215,0.0,0.0,37,0.00,BKN,BKN,0.00,0.0,WeatherDisplay:10.37,2013-05-28 05:21:00,
2013-05-27 23:26:00,62.8,38.1,29.44,WSW,239,0.0,1.1,40,0.00,BKN,BKN,0.00,0.0,WeatherDisplay:10.37,2013-05-28 05:26:00,
2013-05-27 23:31:00,62.4,40.2,29.43,WSW,238,0.0,1.1,44,0.00,BKN,BKN,0.00,0.0,WeatherDisplay:10.37,2013-05-28 05:31:00,
2013-05-27 23:36:00,62.2,41.2,29.44,West,259,0.9,3.4,46,0.00,BKN,BKN,0.00,0.0,WeatherDisplay:10.37,2013-05-28 05:36:00,
2013-05-27 23:41:00,61.9,41.4,29.44,West,261,0.1,0.0,47,0.00,BKN,BKN,0.00,0.0,WeatherDisplay:10.37,2013-05-28 05:41:00,
2013-05-27 23:46:00,61.8,41.9,29.44,West,261,0.0,0.0,48,0.00,BKN,BKN,0.00,0.0,WeatherDisplay:10.37,2013-05-28 05:46:00,
2013-05-27 23:51:00,61.5,42.2,29.45,West,261,0.0,1.1,49,0.00,BKN,BKN,0.00,0.0,WeatherDisplay:10.37,2013-05-28 05:51:00,
2013-05-27 23:56:00,61.3,42.0,29.45,West,259,0.4,2.0,49,0.00,BKN,BKN,0.00,0.0,WeatherDisplay:10.37,2013-05-28 05:56:00,